sensor_id;sensor_type;location;lat;lon;timestamp;pressure;altitude;pressure_sealevel;temperature;humidity
68594;BME280;55563;52.416;13.548;2023-08-08T00:00:44;100535.25;;;13.74;100.00
68594;BME280;55563;52.416;13.548;2023-08-08T00:02:45;100541.59;;;13.73;100.00
68594;BME280;55563;52.416;13.548;2023-08-08T00:04:46;100537.38;;;13.72;100.00
68594;BME280;55563;52.416;13.548;2023-08-08T00:06:46;100527.66;;;13.68;100.00
68594;BME280;55563;52.416;13.548;2023-08-08T00:08:47;100534.31;;;13.65;100.00
68594;BME280;55563;52.416;13.548;2023-08-08T00:10:47;100530.34;;;13.63;100.00
68594;BME280;55563;52.416;13.548;2023-08-08T00:12:48;100518.00;;;13.58;100.00
68594;BME280;55563;52.416;13.548;2023-08-08T00:14:50;100530.41;;;13.58;100.00
68594;BME280;55563;52.416;13.548;2023-08-08T00:16:51;100528.56;;;13.58;100.00
68594;BME280;55563;52.416;13.548;2023-08-08T00:18:51;100529.91;;;13.56;100.00
68594;BME280;55563;52.416;13.548;2023-08-08T00:20:54;100533.44;;;13.46;100.00
68594;BME280;55563;52.416;13.548;2023-08-08T00:22:55;100527.38;;;13.45;100.00
68594;BME280;55563;52.416;13.548;2023-08-08T00:24:55;100528.13;;;13.51;100.00
68594;BME280;55563;52.416;13.548;2023-08-08T00:26:57;100522.31;;;13.49;100.00
68594;BME280;55563;52.416;13.548;2023-08-08T00:28:58;100532.44;;;13.42;100.00
68594;BME280;55563;52.416;13.548;2023-08-08T00:30:58;100523.22;;;13.39;100.00
68594;BME280;55563;52.416;13.548;2023-08-08T00:32:59;100519.56;;;13.35;100.00
68594;BME280;55563;52.416;13.548;2023-08-08T00:34:59;100528.31;;;13.31;100.00
68594;BME280;55563;52.416;13.548;2023-08-08T00:37:00;100524.66;;;13.27;100.00
68594;BME280;55563;52.416;13.548;2023-08-08T00:39:01;100540.50;;;13.27;100.00
68594;BME280;55563;52.416;13.548;2023-08-08T00:41:03;100522.56;;;13.24;100.00
68594;BME280;55563;52.416;13.548;2023-08-08T00:43:05;100535.84;;;13.19;100.00
68594;BME280;55563;52.416;13.548;2023-08-08T00:45:06;100537.19;;;13.11;100.00
68594;BME280;55563;52.416;13.548;2023-08-08T00:47:08;100540.59;;;13.17;100.00
68594;BME280;55563;52.416;13.548;2023-08-08T00:49:09;100539.28;;;13.14;100.00
68594;BME280;55563;52.416;13.548;2023-08-08T00:51:09;100544.59;;;13.09;100.00
68594;BME280;55563;52.416;13.548;2023-08-08T00:53:10;100549.56;;;13.10;100.00
68594;BME280;55563;52.416;13.548;2023-08-08T00:55:12;100550.13;;;13.07;100.00
68594;BME280;55563;52.416;13.548;2023-08-08T00:57:12;100543.81;;;13.08;100.00
68594;BME280;55563;52.416;13.548;2023-08-08T00:59:13;100547.28;;;13.04;100.00
68594;BME280;55563;52.416;13.548;2023-08-08T01:01:17;100543.88;;;12.98;100.00
68594;BME280;55563;52.416;13.548;2023-08-08T01:03:18;100544.66;;;12.99;100.00
68594;BME280;55563;52.416;13.548;2023-08-08T01:05:18;100548.38;;;12.98;100.00
68594;BME280;55563;52.416;13.548;2023-08-08T01:07:42;100556.56;;;12.96;100.00
68594;BME280;55563;52.416;13.548;2023-08-08T01:09:50;100553.41;;;12.94;100.00
68594;BME280;55563;52.416;13.548;2023-08-08T01:11:53;100556.31;;;12.93;100.00
68594;BME280;55563;52.416;13.548;2023-08-08T01:13:55;100557.75;;;12.80;100.00
68594;BME280;55563;52.416;13.548;2023-08-08T01:15:57;100554.53;;;12.83;100.00
68594;BME280;55563;52.416;13.548;2023-08-08T01:17:58;100562.69;;;12.87;100.00
68594;BME280;55563;52.416;13.548;2023-08-08T01:19:59;100561.66;;;12.83;100.00
68594;BME280;55563;52.416;13.548;2023-08-08T01:22:02;100552.72;;;12.79;100.00
68594;BME280;55563;52.416;13.548;2023-08-08T01:24:25;100556.19;;;12.74;100.00
68594;BME280;55563;52.416;13.548;2023-08-08T01:26:28;100559.88;;;12.73;100.00
68594;BME280;55563;52.416;13.548;2023-08-08T01:28:29;100561.72;;;12.73;100.00
68594;BME280;55563;52.416;13.548;2023-08-08T01:30:29;100551.50;;;12.66;100.00
68594;BME280;55563;52.416;13.548;2023-08-08T01:32:30;100554.41;;;12.64;100.00
68594;BME280;55563;52.416;13.548;2023-08-08T01:34:31;100550.72;;;12.65;100.00
68594;BME280;55563;52.416;13.548;2023-08-08T01:36:40;100550.19;;;12.63;100.00
68594;BME280;55563;52.416;13.548;2023-08-08T01:38:46;100543.63;;;12.61;100.00
68594;BME280;55563;52.416;13.548;2023-08-08T01:40:49;100554.66;;;12.63;100.00
68594;BME280;55563;52.416;13.548;2023-08-08T01:42:50;100546.81;;;12.53;100.00
68594;BME280;55563;52.416;13.548;2023-08-08T01:44:52;100541.53;;;12.58;100.00
68594;BME280;55563;52.416;13.548;2023-08-08T01:46:56;100543.16;;;12.49;100.00
68594;BME280;55563;52.416;13.548;2023-08-08T01:48:58;100535.47;;;12.52;100.00
68594;BME280;55563;52.416;13.548;2023-08-08T01:51:00;100534.69;;;12.52;100.00
68594;BME280;55563;52.416;13.548;2023-08-08T01:53:01;100546.88;;;12.43;100.00
68594;BME280;55563;52.416;13.548;2023-08-08T01:55:02;100540.78;;;12.47;100.00
68594;BME280;55563;52.416;13.548;2023-08-08T01:57:03;100544.78;;;12.45;100.00
68594;BME280;55563;52.416;13.548;2023-08-08T01:59:04;100532.91;;;12.42;100.00
68594;BME280;55563;52.416;13.548;2023-08-08T02:01:04;100529.78;;;12.40;100.00
68594;BME280;55563;52.416;13.548;2023-08-08T02:03:05;100525.56;;;12.34;100.00
68594;BME280;55563;52.416;13.548;2023-08-08T02:05:06;100525.56;;;12.34;100.00
68594;BME280;55563;52.416;13.548;2023-08-08T02:07:06;100528.78;;;12.31;100.00
68594;BME280;55563;52.416;13.548;2023-08-08T02:09:07;100529.25;;;12.38;100.00
68594;BME280;55563;52.416;13.548;2023-08-08T02:11:09;100519.28;;;12.30;100.00
68594;BME280;55563;52.416;13.548;2023-08-08T02:13:10;100524.78;;;12.34;100.00
68594;BME280;55563;52.416;13.548;2023-08-08T02:15:11;100528.47;;;12.33;100.00
68594;BME280;55563;52.416;13.548;2023-08-08T02:17:12;100510.03;;;12.33;100.00
68594;BME280;55563;52.416;13.548;2023-08-08T02:19:12;100513.72;;;12.37;100.00
68594;BME280;55563;52.416;13.548;2023-08-08T02:21:13;100519.84;;;12.27;100.00
68594;BME280;55563;52.416;13.548;2023-08-08T02:23:14;100516.38;;;12.32;100.00
68594;BME280;55563;52.416;13.548;2023-08-08T02:25:14;100523.28;;;12.22;100.00
68594;BME280;55563;52.416;13.548;2023-08-08T02:27:15;100519.56;;;12.23;100.00
68594;BME280;55563;52.416;13.548;2023-08-08T02:29:16;100518.25;;;12.26;100.00
68594;BME280;55563;52.416;13.548;2023-08-08T02:31:16;100520.63;;;12.28;100.00
68594;BME280;55563;52.416;13.548;2023-08-08T02:33:21;100512.22;;;12.20;100.00
68594;BME280;55563;52.416;13.548;2023-08-08T02:35:21;100511.97;;;12.22;100.00
68594;BME280;55563;52.416;13.548;2023-08-08T02:37:22;100519.06;;;12.21;100.00
68594;BME280;55563;52.416;13.548;2023-08-08T02:39:23;100516.69;;;12.20;100.00
68594;BME280;55563;52.416;13.548;2023-08-08T02:41:23;100511.97;;;12.17;100.00
68594;BME280;55563;52.416;13.548;2023-08-08T02:43:25;100519.91;;;12.12;100.00
68594;BME280;55563;52.416;13.548;2023-08-08T02:45:25;100511.97;;;12.17;100.00
68594;BME280;55563;52.416;13.548;2023-08-08T02:47:27;100510.63;;;12.19;100.00
68594;BME280;55563;52.416;13.548;2023-08-08T02:49:28;100515.94;;;12.14;100.00
68594;BME280;55563;52.416;13.548;2023-08-08T02:51:29;100514.34;;;12.13;100.00
68594;BME280;55563;52.416;13.548;2023-08-08T02:53:29;100509.88;;;12.14;100.00
68594;BME280;55563;52.416;13.548;2023-08-08T02:55:30;100516.75;;;12.10;100.00
68594;BME280;55563;52.416;13.548;2023-08-08T02:57:31;100514.91;;;12.10;100.00
68594;BME280;55563;52.416;13.548;2023-08-08T02:59:32;100514.91;;;12.10;100.00
68594;BME280;55563;52.416;13.548;2023-08-08T03:01:35;100509.13;;;12.08;100.00
68594;BME280;55563;52.416;13.548;2023-08-08T03:03:43;100514.09;;;12.10;100.00
68594;BME280;55563;52.416;13.548;2023-08-08T03:05:44;100521.50;;;12.13;100.00
68594;BME280;55563;52.416;13.548;2023-08-08T03:07:46;100517.03;;;12.08;100.00
68594;BME280;55563;52.416;13.548;2023-08-08T03:09:48;100513.59;;;12.08;100.00
68594;BME280;55563;52.416;13.548;2023-08-08T03:11:49;100516.75;;;12.05;100.00
68594;BME280;55563;52.416;13.548;2023-08-08T03:13:50;100517.81;;;12.04;100.00
68594;BME280;55563;52.416;13.548;2023-08-08T03:15:52;100517.06;;;12.03;100.00
68594;BME280;55563;52.416;13.548;2023-08-08T03:17:53;100517.31;;;12.02;100.00
68594;BME280;55563;52.416;13.548;2023-08-08T03:19:56;100511.78;;;12.03;100.00
68594;BME280;55563;52.416;13.548;2023-08-08T03:21:58;100522.59;;;12.02;100.00
68594;BME280;55563;52.416;13.548;2023-08-08T03:23:59;100522.06;;;12.00;100.00
68594;BME280;55563;52.416;13.548;2023-08-08T03:26:00;100522.59;;;12.02;100.00
68594;BME280;55563;52.416;13.548;2023-08-08T03:28:01;100518.09;;;12.02;100.00
68594;BME280;55563;52.416;13.548;2023-08-08T03:30:02;100518.91;;;12.03;100.00
68594;BME280;55563;52.416;13.548;2023-08-08T03:32:09;100513.63;;;12.03;100.00
68594;BME280;55563;52.416;13.548;2023-08-08T03:34:09;100511.78;;;12.03;100.00
68594;BME280;55563;52.416;13.548;2023-08-08T03:36:10;100512.84;;;12.02;100.00
68594;BME280;55563;52.416;13.548;2023-08-08T03:38:11;100512.84;;;12.02;100.00
68594;BME280;55563;52.416;13.548;2023-08-08T03:40:12;100516.31;;;11.93;100.00
68594;BME280;55563;52.416;13.548;2023-08-08T03:42:14;100511.28;;;11.96;100.00
68594;BME280;55563;52.416;13.548;2023-08-08T03:44:15;100516.78;;;12.00;100.00
68594;BME280;55563;52.416;13.548;2023-08-08T03:46:16;100519.41;;;12.00;100.00
68594;BME280;55563;52.416;13.548;2023-08-08T03:48:17;100522.59;;;11.97;100.00
68594;BME280;55563;52.416;13.548;2023-08-08T03:50:17;100522.59;;;12.02;100.00
68594;BME280;55563;52.416;13.548;2023-08-08T03:52:18;100529.16;;;11.99;100.00
68594;BME280;55563;52.416;13.548;2023-08-08T03:54:19;100532.34;;;12.01;100.00
68594;BME280;55563;52.416;13.548;2023-08-08T03:56:20;100535.50;;;11.98;100.00
68594;BME280;55563;52.416;13.548;2023-08-08T03:58:20;100523.09;;;12.04;100.00
68594;BME280;55563;52.416;13.548;2023-08-08T04:00:21;100529.94;;;12.05;100.00
68594;BME280;55563;52.416;13.548;2023-08-08T04:02:33;100523.34;;;12.07;100.00
68594;BME280;55563;52.416;13.548;2023-08-08T04:04:35;100521.50;;;12.13;100.00
68594;BME280;55563;52.416;13.548;2023-08-08T04:06:36;100521.41;;;12.23;100.00
68594;BME280;55563;52.416;13.548;2023-08-08T04:08:36;100518.22;;;12.31;100.00
68594;BME280;55563;52.416;13.548;2023-08-08T04:10:37;100517.91;;;12.38;100.00
68594;BME280;55563;52.416;13.548;2023-08-08T04:12:38;100518.69;;;12.38;100.00
68594;BME280;55563;52.416;13.548;2023-08-08T04:14:38;100521.34;;;12.38;100.00
68594;BME280;55563;52.416;13.548;2023-08-08T04:16:39;100525.31;;;12.36;100.00
68594;BME280;55563;52.416;13.548;2023-08-08T04:18:40;100527.63;;;12.42;100.00
68594;BME280;55563;52.416;13.548;2023-08-08T04:20:41;100523.91;;;12.48;100.00
68594;BME280;55563;52.416;13.548;2023-08-08T04:22:41;100524.47;;;12.45;100.00
68594;BME280;55563;52.416;13.548;2023-08-08T04:24:42;100518.94;;;12.47;100.00
68594;BME280;55563;52.416;13.548;2023-08-08T04:26:43;100522.88;;;12.44;100.00
68594;BME280;55563;52.416;13.548;2023-08-08T04:28:43;100514.72;;;12.46;100.00
68594;BME280;55563;52.416;13.548;2023-08-08T04:30:44;100519.16;;;12.50;100.00
68594;BME280;55563;52.416;13.548;2023-08-08T04:32:45;100512.56;;;12.48;100.00
68594;BME280;55563;52.416;13.548;2023-08-08T04:34:46;100514.91;;;12.54;100.00
68594;BME280;55563;52.416;13.548;2023-08-08T04:36:46;100516.97;;;12.62;100.00
68594;BME280;55563;52.416;13.548;2023-08-08T04:38:47;100517.44;;;12.75;100.00
68594;BME280;55563;52.416;13.548;2023-08-08T04:40:47;100506.03;;;12.79;100.00
68594;BME280;55563;52.416;13.548;2023-08-08T04:42:48;100521.94;;;13.03;100.00
68594;BME280;55563;52.416;13.548;2023-08-08T04:44:49;100512.34;;;14.12;100.00
68594;BME280;55563;52.416;13.548;2023-08-08T04:46:49;100511.75;;;15.50;100.00
68594;BME280;55563;52.416;13.548;2023-08-08T04:48:50;100509.28;;;15.26;100.00
68594;BME280;55563;52.416;13.548;2023-08-08T04:50:51;100511.69;;;14.02;100.00
68594;BME280;55563;52.416;13.548;2023-08-08T04:52:51;100516.53;;;15.53;100.00
68594;BME280;55563;52.416;13.548;2023-08-08T04:54:52;100509.09;;;15.50;100.00
68594;BME280;55563;52.416;13.548;2023-08-08T04:56:52;100515.06;;;14.26;100.00
68594;BME280;55563;52.416;13.548;2023-08-08T04:58:53;100518.28;;;14.79;100.00
68594;BME280;55563;52.416;13.548;2023-08-08T05:00:54;100519.66;;;15.82;100.00
68594;BME280;55563;52.416;13.548;2023-08-08T05:02:55;100513.84;;;14.74;100.00
68594;BME280;55563;52.416;13.548;2023-08-08T05:04:56;100524.03;;;14.67;100.00
68594;BME280;55563;52.416;13.548;2023-08-08T05:06:56;100527.94;;;16.30;100.00
68594;BME280;55563;52.416;13.548;2023-08-08T05:08:58;100532.47;;;16.30;100.00
68594;BME280;55563;52.416;13.548;2023-08-08T05:10:58;100529.91;;;16.25;100.00
68594;BME280;55563;52.416;13.548;2023-08-08T05:12:59;100515.13;;;14.96;100.00
68594;BME280;55563;52.416;13.548;2023-08-08T05:15:00;100524.38;;;14.79;100.00
68594;BME280;55563;52.416;13.548;2023-08-08T05:17:02;100522.50;;;14.80;100.00
68594;BME280;55563;52.416;13.548;2023-08-08T05:19:03;100524.59;;;15.29;100.00
68594;BME280;55563;52.416;13.548;2023-08-08T05:21:04;100520.84;;;15.62;100.00
68594;BME280;55563;52.416;13.548;2023-08-08T05:23:05;100518.66;;;15.51;100.00
68594;BME280;55563;52.416;13.548;2023-08-08T05:25:06;100510.69;;;14.91;100.00
68594;BME280;55563;52.416;13.548;2023-08-08T05:27:06;100514.56;;;14.80;100.00
68594;BME280;55563;52.416;13.548;2023-08-08T05:29:07;100513.69;;;14.84;100.00
68594;BME280;55563;52.416;13.548;2023-08-08T05:31:08;100511.75;;;14.90;100.00
68594;BME280;55563;52.416;13.548;2023-08-08T05:33:09;100510.97;;;14.90;100.00
68594;BME280;55563;52.416;13.548;2023-08-08T05:35:10;100524.19;;;15.68;100.00
68594;BME280;55563;52.416;13.548;2023-08-08T05:37:21;100515.13;;;15.55;100.00
68594;BME280;55563;52.416;13.548;2023-08-08T05:39:21;100515.53;;;15.62;100.00
68594;BME280;55563;52.416;13.548;2023-08-08T05:41:22;100515.00;;;16.15;100.00
68594;BME280;55563;52.416;13.548;2023-08-08T05:43:23;100521.28;;;16.19;100.00
68594;BME280;55563;52.416;13.548;2023-08-08T05:45:23;100517.41;;;15.76;100.00
68594;BME280;55563;52.416;13.548;2023-08-08T05:47:24;100516.69;;;15.84;100.00
68594;BME280;55563;52.416;13.548;2023-08-08T05:49:24;100518.88;;;15.68;100.00
68594;BME280;55563;52.416;13.548;2023-08-08T05:51:25;100524.34;;;15.99;100.00
68594;BME280;55563;52.416;13.548;2023-08-08T05:53:26;100518.19;;;15.62;100.00
68594;BME280;55563;52.416;13.548;2023-08-08T05:55:26;100510.72;;;15.51;100.00
68594;BME280;55563;52.416;13.548;2023-08-08T05:57:27;100519.06;;;15.58;100.00
68594;BME280;55563;52.416;13.548;2023-08-08T05:59:28;100524.19;;;15.82;100.00
68594;BME280;55563;52.416;13.548;2023-08-08T06:01:29;100515.97;;;15.37;100.00
68594;BME280;55563;52.416;13.548;2023-08-08T06:03:30;100520.53;;;15.04;100.00
68594;BME280;55563;52.416;13.548;2023-08-08T06:05:31;100526.88;;;15.03;100.00
68594;BME280;55563;52.416;13.548;2023-08-08T06:07:31;100515.34;;;15.13;100.00
68594;BME280;55563;52.416;13.548;2023-08-08T06:09:32;100512.06;;;15.02;100.00
68594;BME280;55563;52.416;13.548;2023-08-08T06:11:33;100521.97;;;14.97;100.00
68594;BME280;55563;52.416;13.548;2023-08-08T06:13:33;100512.47;;;14.96;100.00
68594;BME280;55563;52.416;13.548;2023-08-08T06:15:34;100516.19;;;14.95;100.00
68594;BME280;55563;52.416;13.548;2023-08-08T06:17:34;100521.47;;;14.95;100.00
68594;BME280;55563;52.416;13.548;2023-08-08T06:19:35;100518.66;;;15.05;100.00
68594;BME280;55563;52.416;13.548;2023-08-08T06:21:36;100518.75;;;15.00;100.00
68594;BME280;55563;52.416;13.548;2023-08-08T06:23:36;100519.19;;;14.88;100.00
68594;BME280;55563;52.416;13.548;2023-08-08T06:25:37;100523.56;;;14.79;100.00
68594;BME280;55563;52.416;13.548;2023-08-08T06:27:39;100523.00;;;14.82;100.00
68594;BME280;55563;52.416;13.548;2023-08-08T06:29:39;100525.34;;;14.83;100.00
68594;BME280;55563;52.416;13.548;2023-08-08T06:31:40;100535.88;;;14.70;100.00
68594;BME280;55563;52.416;13.548;2023-08-08T06:33:41;100527.75;;;14.66;100.00
68594;BME280;55563;52.416;13.548;2023-08-08T06:35:42;100530.72;;;14.78;100.00
68594;BME280;55563;52.416;13.548;2023-08-08T06:37:42;100523.09;;;14.77;100.00
68594;BME280;55563;52.416;13.548;2023-08-08T06:39:44;100527.84;;;14.94;100.00
68594;BME280;55563;52.416;13.548;2023-08-08T06:41:45;100526.41;;;14.82;100.00
68594;BME280;55563;52.416;13.548;2023-08-08T06:43:45;100526.41;;;14.82;100.00
68594;BME280;55563;52.416;13.548;2023-08-08T06:45:46;100530.59;;;14.70;100.00
68594;BME280;55563;52.416;13.548;2023-08-08T06:47:47;100526.50;;;14.77;100.00
68594;BME280;55563;52.416;13.548;2023-08-08T06:49:47;100526.81;;;14.76;100.00
68594;BME280;55563;52.416;13.548;2023-08-08T06:51:48;100520.59;;;14.99;100.00
68594;BME280;55563;52.416;13.548;2023-08-08T06:53:49;100524.66;;;15.10;100.00
68594;BME280;55563;52.416;13.548;2023-08-08T06:55:49;100524.78;;;15.19;100.00
68594;BME280;55563;52.416;13.548;2023-08-08T06:57:50;100525.88;;;15.32;100.00
68594;BME280;55563;52.416;13.548;2023-08-08T06:59:50;100530.44;;;15.12;100.00
68594;BME280;55563;52.416;13.548;2023-08-08T07:01:53;100518.88;;;15.22;100.00
68594;BME280;55563;52.416;13.548;2023-08-08T07:03:54;100524.69;;;15.24;100.00
68594;BME280;55563;52.416;13.548;2023-08-08T07:05:54;100518.00;;;15.26;100.00
68594;BME280;55563;52.416;13.548;2023-08-08T07:07:55;100524.34;;;15.44;100.00
68594;BME280;55563;52.416;13.548;2023-08-08T07:09:56;100519.00;;;15.31;100.00
68594;BME280;55563;52.416;13.548;2023-08-08T07:11:57;100527.25;;;15.29;100.00
68594;BME280;55563;52.416;13.548;2023-08-08T07:13:57;100527.81;;;15.58;100.00
68594;BME280;55563;52.416;13.548;2023-08-08T07:15:58;100526.38;;;15.47;100.00
68594;BME280;55563;52.416;13.548;2023-08-08T07:17:59;100528.28;;;16.01;100.00
68594;BME280;55563;52.416;13.548;2023-08-08T07:20:00;100537.56;;;16.26;100.00
68594;BME280;55563;52.416;13.548;2023-08-08T07:22:01;100535.25;;;16.83;100.00
68594;BME280;55563;52.416;13.548;2023-08-08T07:24:02;100538.94;;;16.73;100.00
68594;BME280;55563;52.416;13.548;2023-08-08T07:26:03;100538.22;;;16.81;100.00
68594;BME280;55563;52.416;13.548;2023-08-08T07:28:04;100529.97;;;16.69;100.00
68594;BME280;55563;52.416;13.548;2023-08-08T07:30:05;100532.28;;;17.07;100.00
68594;BME280;55563;52.416;13.548;2023-08-08T07:32:07;100537.38;;;17.25;100.00
68594;BME280;55563;52.416;13.548;2023-08-08T07:34:08;100535.59;;;17.74;100.00
68594;BME280;55563;52.416;13.548;2023-08-08T07:36:09;100541.88;;;17.56;100.00
68594;BME280;55563;52.416;13.548;2023-08-08T07:38:09;100521.78;;;17.63;100.00
68594;BME280;55563;52.416;13.548;2023-08-08T07:40:14;100538.53;;;17.64;100.00
68594;BME280;55563;52.416;13.548;2023-08-08T07:42:14;100539.00;;;17.66;100.00
68594;BME280;55563;52.416;13.548;2023-08-08T07:44:15;100540.72;;;17.31;100.00
68594;BME280;55563;52.416;13.548;2023-08-08T07:46:16;100534.28;;;17.32;100.00
68594;BME280;55563;52.416;13.548;2023-08-08T07:48:16;100539.63;;;17.10;100.00
68594;BME280;55563;52.416;13.548;2023-08-08T07:50:17;100540.56;;;17.05;100.00
68594;BME280;55563;52.416;13.548;2023-08-08T07:52:18;100538.56;;;17.11;100.00
68594;BME280;55563;52.416;13.548;2023-08-08T07:54:19;100536.59;;;17.02;100.00
68594;BME280;55563;52.416;13.548;2023-08-08T07:56:20;100535.47;;;16.95;100.00
68594;BME280;55563;52.416;13.548;2023-08-08T07:58:20;100536.59;;;17.02;100.00
68594;BME280;55563;52.416;13.548;2023-08-08T08:00:23;100539.41;;;16.97;100.00
68594;BME280;55563;52.416;13.548;2023-08-08T08:02:24;100535.97;;;16.97;100.00
68594;BME280;55563;52.416;13.548;2023-08-08T08:04:24;100538.19;;;17.04;100.00
68594;BME280;55563;52.416;13.548;2023-08-08T08:06:25;100528.50;;;17.30;100.00
68594;BME280;55563;52.416;13.548;2023-08-08T08:08:26;100526.56;;;17.53;100.00
68594;BME280;55563;52.416;13.548;2023-08-08T08:10:26;100528.69;;;17.64;100.00
68594;BME280;55563;52.416;13.548;2023-08-08T08:12:27;100531.25;;;17.56;100.00
68594;BME280;55563;52.416;13.548;2023-08-08T08:14:28;100534.06;;;17.51;100.00
68594;BME280;55563;52.416;13.548;2023-08-08T08:16:28;100528.34;;;17.66;100.00
68594;BME280;55563;52.416;13.548;2023-08-08T08:18:29;100530.16;;;17.88;100.00
68594;BME280;55563;52.416;13.548;2023-08-08T08:20:30;100513.59;;;17.99;100.00
68594;BME280;55563;52.416;13.548;2023-08-08T08:22:31;100521.47;;;18.21;100.00
68594;BME280;55563;52.416;13.548;2023-08-08T08:24:32;100522.69;;;17.98;100.00
68594;BME280;55563;52.416;13.548;2023-08-08T08:26:33;100520.31;;;17.88;100.00
68594;BME280;55563;52.416;13.548;2023-08-08T08:28:34;100520.75;;;17.81;100.00
68594;BME280;55563;52.416;13.548;2023-08-08T08:30:34;100518.38;;;17.80;100.00
68594;BME280;55563;52.416;13.548;2023-08-08T08:32:39;100517.25;;;17.64;100.00
68594;BME280;55563;52.416;13.548;2023-08-08T08:34:40;100516.94;;;17.65;100.00
68594;BME280;55563;52.416;13.548;2023-08-08T08:36:41;100521.53;;;17.73;100.00
68594;BME280;55563;52.416;13.548;2023-08-08T08:38:41;100520.75;;;17.81;100.00
68594;BME280;55563;52.416;13.548;2023-08-08T08:40:42;100510.75;;;17.78;100.00
68594;BME280;55563;52.416;13.548;2023-08-08T08:42:47;100517.50;;;17.93;100.00
68594;BME280;55563;52.416;13.548;2023-08-08T08:44:49;100518.97;;;18.51;100.00
68594;BME280;55563;52.416;13.548;2023-08-08T08:46:52;100501.91;;;18.35;100.00
68594;BME280;55563;52.416;13.548;2023-08-08T08:48:54;100516.75;;;18.53;100.00
68594;BME280;55563;52.416;13.548;2023-08-08T08:50:56;100511.13;;;18.37;100.00
68594;BME280;55563;52.416;13.548;2023-08-08T08:53:00;100512.34;;;18.22;100.00
68594;BME280;55563;52.416;13.548;2023-08-08T08:55:02;100510.78;;;17.96;100.00
68594;BME280;55563;52.416;13.548;2023-08-08T08:57:04;100507.69;;;18.19;100.00
68594;BME280;55563;52.416;13.548;2023-08-08T08:59:05;100508.59;;;18.32;100.00
68594;BME280;55563;52.416;13.548;2023-08-08T09:01:07;100513.94;;;18.23;100.00
68594;BME280;55563;52.416;13.548;2023-08-08T09:03:08;100509.88;;;18.26;100.00
68594;BME280;55563;52.416;13.548;2023-08-08T09:05:09;100514.88;;;18.27;100.00
68594;BME280;55563;52.416;13.548;2023-08-08T09:07:11;100508.47;;;18.11;100.00
68594;BME280;55563;52.416;13.548;2023-08-08T09:09:12;100508.31;;;18.08;100.00
68594;BME280;55563;52.416;13.548;2023-08-08T09:11:13;100509.88;;;18.26;100.00
68594;BME280;55563;52.416;13.548;2023-08-08T09:13:14;100506.59;;;18.29;100.00
68594;BME280;55563;52.416;13.548;2023-08-08T09:15:14;100513.31;;;18.44;100.00
68594;BME280;55563;52.416;13.548;2023-08-08T09:17:15;100514.25;;;18.30;100.00
68594;BME280;55563;52.416;13.548;2023-08-08T09:19:16;100506.44;;;18.25;100.00
68594;BME280;55563;52.416;13.548;2023-08-08T09:21:18;100504.69;;;18.47;100.00
68594;BME280;55563;52.416;13.548;2023-08-08T09:23:20;100510.66;;;18.61;100.00
68594;BME280;55563;52.416;13.548;2023-08-08T09:25:20;100502.06;;;18.72;100.00
68594;BME280;55563;52.416;13.548;2023-08-08T09:27:21;100497.03;;;18.80;100.00
68594;BME280;55563;52.416;13.548;2023-08-08T09:29:22;100493.88;;;19.03;100.00
68594;BME280;55563;52.416;13.548;2023-08-08T09:31:25;100495.56;;;19.08;100.00
68594;BME280;55563;52.416;13.548;2023-08-08T09:33:29;100490.03;;;19.22;100.00
68594;BME280;55563;52.416;13.548;2023-08-08T09:35:30;100482.34;;;19.20;100.00
68594;BME280;55563;52.416;13.548;2023-08-08T09:37:31;100497.53;;;19.28;100.00
68594;BME280;55563;52.416;13.548;2023-08-08T09:39:31;100489.28;;;19.12;100.00
68594;BME280;55563;52.416;13.548;2023-08-08T09:41:32;100490.41;;;19.03;100.00
68594;BME280;55563;52.416;13.548;2023-08-08T09:43:33;100491.03;;;19.00;100.00
68594;BME280;55563;52.416;13.548;2023-08-08T09:45:36;100486.69;;;19.33;100.00
68594;BME280;55563;52.416;13.548;2023-08-08T09:47:37;100479.34;;;19.68;100.00
68594;BME280;55563;52.416;13.548;2023-08-08T09:49:38;100487.63;;;19.75;100.00
68594;BME280;55563;52.416;13.548;2023-08-08T09:51:39;100485.31;;;19.94;100.00
68594;BME280;55563;52.416;13.548;2023-08-08T09:53:40;100479.47;;;19.42;100.00
68594;BME280;55563;52.416;13.548;2023-08-08T09:55:42;100476.78;;;19.42;100.00
68594;BME280;55563;52.416;13.548;2023-08-08T09:57:44;100478.97;;;19.49;100.00
68594;BME280;55563;52.416;13.548;2023-08-08T09:59:45;100472.78;;;19.28;100.00
68594;BME280;55563;52.416;13.548;2023-08-08T10:01:47;100479.94;;;19.36;100.00
68594;BME280;55563;52.416;13.548;2023-08-08T10:03:51;100466.41;;;19.79;100.00
68594;BME280;55563;52.416;13.548;2023-08-08T10:05:52;100465.16;;;19.76;100.00
68594;BME280;55563;52.416;13.548;2023-08-08T10:07:53;100469.53;;;19.81;100.00
68594;BME280;55563;52.416;13.548;2023-08-08T10:09:54;100460.91;;;19.54;100.00
68594;BME280;55563;52.416;13.548;2023-08-08T10:11:55;100449.53;;;19.28;100.00
68594;BME280;55563;52.416;13.548;2023-08-08T10:13:57;100461.66;;;19.26;100.00
68594;BME280;55563;52.416;13.548;2023-08-08T10:16:04;100465.94;;;19.09;100.00
68594;BME280;55563;52.416;13.548;2023-08-08T10:18:08;100467.50;;;19.10;100.00